sensor_id;sensor_type;location;lat;lon;timestamp;temperature;humidity
3919;DHT22;1974;48.670;8.994;2022-07-12T00:00:10;16.40;99.90
3919;DHT22;1974;48.670;8.994;2022-07-12T00:02:37;16.40;99.90
3919;DHT22;1974;48.670;8.994;2022-07-12T00:05:04;16.40;99.90
3919;DHT22;1974;48.670;8.994;2022-07-12T00:07:31;16.40;99.90
3919;DHT22;1974;48.670;8.994;2022-07-12T00:09:58;16.30;99.90
3919;DHT22;1974;48.670;8.994;2022-07-12T00:12:25;16.30;99.90
3919;DHT22;1974;48.670;8.994;2022-07-12T00:14:52;16.30;99.90
3919;DHT22;1974;48.670;8.994;2022-07-12T00:17:20;16.30;99.90
3919;DHT22;1974;48.670;8.994;2022-07-12T00:19:46;16.30;99.90
3919;DHT22;1974;48.670;8.994;2022-07-12T00:22:13;16.20;99.90
3919;DHT22;1974;48.670;8.994;2022-07-12T00:24:40;16.20;99.90
3919;DHT22;1974;48.670;8.994;2022-07-12T00:27:07;16.20;99.90
3919;DHT22;1974;48.670;8.994;2022-07-12T00:29:33;16.20;99.90
3919;DHT22;1974;48.670;8.994;2022-07-12T00:32:00;16.10;99.90
3919;DHT22;1974;48.670;8.994;2022-07-12T00:34:28;16.10;99.90
3919;DHT22;1974;48.670;8.994;2022-07-12T00:36:55;16.00;99.90
3919;DHT22;1974;48.670;8.994;2022-07-12T00:39:22;16.00;99.90
3919;DHT22;1974;48.670;8.994;2022-07-12T00:41:49;16.00;99.90
3919;DHT22;1974;48.670;8.994;2022-07-12T00:44:15;16.00;99.90
3919;DHT22;1974;48.670;8.994;2022-07-12T00:46:43;16.00;99.90
3919;DHT22;1974;48.670;8.994;2022-07-12T00:49:10;15.90;99.90
3919;DHT22;1974;48.670;8.994;2022-07-12T00:51:42;15.90;99.90
3919;DHT22;1974;48.670;8.994;2022-07-12T00:54:10;15.90;99.90
3919;DHT22;1974;48.670;8.994;2022-07-12T00:56:37;15.90;99.90
3919;DHT22;1974;48.670;8.994;2022-07-12T00:59:03;15.80;99.90
3919;DHT22;1974;48.670;8.994;2022-07-12T01:01:30;15.70;99.90
3919;DHT22;1974;48.670;8.994;2022-07-12T01:03:57;15.70;99.90
3919;DHT22;1974;48.670;8.994;2022-07-12T01:06:24;15.70;99.90
3919;DHT22;1974;48.670;8.994;2022-07-12T01:08:53;15.70;99.90
3919;DHT22;1974;48.670;8.994;2022-07-12T01:11:20;15.70;99.90
3919;DHT22;1974;48.670;8.994;2022-07-12T01:13:48;15.70;99.90
3919;DHT22;1974;48.670;8.994;2022-07-12T01:16:17;15.70;99.90
3919;DHT22;1974;48.670;8.994;2022-07-12T01:18:44;15.60;99.90
3919;DHT22;1974;48.670;8.994;2022-07-12T01:21:18;15.60;99.90
3919;DHT22;1974;48.670;8.994;2022-07-12T01:23:47;15.50;99.90
3919;DHT22;1974;48.670;8.994;2022-07-12T01:26:14;15.50;99.90
3919;DHT22;1974;48.670;8.994;2022-07-12T01:28:41;15.50;99.90
3919;DHT22;1974;48.670;8.994;2022-07-12T01:31:08;15.50;99.90
3919;DHT22;1974;48.670;8.994;2022-07-12T01:33:35;15.50;99.90
3919;DHT22;1974;48.670;8.994;2022-07-12T01:36:02;15.50;99.90
3919;DHT22;1974;48.670;8.994;2022-07-12T01:38:30;15.40;99.90
3919;DHT22;1974;48.670;8.994;2022-07-12T01:40:58;15.40;99.90
3919;DHT22;1974;48.670;8.994;2022-07-12T01:43:26;15.30;99.90
3919;DHT22;1974;48.670;8.994;2022-07-12T01:45:54;15.30;99.90
3919;DHT22;1974;48.670;8.994;2022-07-12T01:48:21;15.30;99.90
3919;DHT22;1974;48.670;8.994;2022-07-12T01:50:48;15.30;99.90
3919;DHT22;1974;48.670;8.994;2022-07-12T01:53:15;15.30;99.90
3919;DHT22;1974;48.670;8.994;2022-07-12T01:55:42;15.40;99.90
3919;DHT22;1974;48.670;8.994;2022-07-12T01:58:12;15.40;99.90
3919;DHT22;1974;48.670;8.994;2022-07-12T02:00:39;15.30;99.90
3919;DHT22;1974;48.670;8.994;2022-07-12T02:03:06;15.30;99.90
3919;DHT22;1974;48.670;8.994;2022-07-12T02:05:32;15.30;99.90
3919;DHT22;1974;48.670;8.994;2022-07-12T02:07:59;15.30;99.90
3919;DHT22;1974;48.670;8.994;2022-07-12T02:10:26;15.30;99.90
3919;DHT22;1974;48.670;8.994;2022-07-12T02:12:53;15.40;99.90
3919;DHT22;1974;48.670;8.994;2022-07-12T02:15:21;15.40;99.90
3919;DHT22;1974;48.670;8.994;2022-07-12T02:17:48;15.40;99.90
3919;DHT22;1974;48.670;8.994;2022-07-12T02:20:15;15.40;99.90
3919;DHT22;1974;48.670;8.994;2022-07-12T02:22:42;15.40;99.90
3919;DHT22;1974;48.670;8.994;2022-07-12T02:25:09;15.40;99.90
3919;DHT22;1974;48.670;8.994;2022-07-12T02:27:36;15.30;99.90
3919;DHT22;1974;48.670;8.994;2022-07-12T02:30:05;15.30;99.90
3919;DHT22;1974;48.670;8.994;2022-07-12T02:32:34;15.30;99.90
3919;DHT22;1974;48.670;8.994;2022-07-12T02:35:00;15.30;99.90
3919;DHT22;1974;48.670;8.994;2022-07-12T02:37:27;15.20;99.90
3919;DHT22;1974;48.670;8.994;2022-07-12T02:39:54;15.20;99.90
3919;DHT22;1974;48.670;8.994;2022-07-12T02:42:41;15.20;99.90
3919;DHT22;1974;48.670;8.994;2022-07-12T02:45:09;15.10;99.90
3919;DHT22;1974;48.670;8.994;2022-07-12T02:47:38;15.20;99.90
3919;DHT22;1974;48.670;8.994;2022-07-12T02:50:06;15.10;99.90
3919;DHT22;1974;48.670;8.994;2022-07-12T02:52:33;15.20;99.90
3919;DHT22;1974;48.670;8.994;2022-07-12T02:55:00;15.20;99.90
3919;DHT22;1974;48.670;8.994;2022-07-12T02:57:27;15.20;99.90
3919;DHT22;1974;48.670;8.994;2022-07-12T02:59:53;15.20;99.90
3919;DHT22;1974;48.670;8.994;2022-07-12T03:02:20;15.30;99.90
3919;DHT22;1974;48.670;8.994;2022-07-12T03:04:48;15.30;99.90
3919;DHT22;1974;48.670;8.994;2022-07-12T03:07:15;15.30;99.90
3919;DHT22;1974;48.670;8.994;2022-07-12T03:09:42;15.30;99.90
3919;DHT22;1974;48.670;8.994;2022-07-12T03:12:08;15.30;99.90
3919;DHT22;1974;48.670;8.994;2022-07-12T03:14:35;15.30;99.90
3919;DHT22;1974;48.670;8.994;2022-07-12T03:17:02;15.40;99.90
3919;DHT22;1974;48.670;8.994;2022-07-12T03:19:29;15.40;99.90
3919;DHT22;1974;48.670;8.994;2022-07-12T03:21:57;15.40;99.90
3919;DHT22;1974;48.670;8.994;2022-07-12T03:24:24;15.30;99.90
3919;DHT22;1974;48.670;8.994;2022-07-12T03:26:50;15.30;99.90
3919;DHT22;1974;48.670;8.994;2022-07-12T03:29:17;15.30;99.90
3919;DHT22;1974;48.670;8.994;2022-07-12T03:31:44;15.30;99.90
3919;DHT22;1974;48.670;8.994;2022-07-12T03:34:11;15.30;99.90
3919;DHT22;1974;48.670;8.994;2022-07-12T03:36:38;15.30;99.90
3919;DHT22;1974;48.670;8.994;2022-07-12T03:39:06;15.30;99.90
3919;DHT22;1974;48.670;8.994;2022-07-12T03:41:32;15.30;99.90
3919;DHT22;1974;48.670;8.994;2022-07-12T03:43:59;15.20;99.90
3919;DHT22;1974;48.670;8.994;2022-07-12T03:46:26;15.20;99.90
3919;DHT22;1974;48.670;8.994;2022-07-12T03:48:53;15.20;99.90
3919;DHT22;1974;48.670;8.994;2022-07-12T03:51:19;15.30;99.90
3919;DHT22;1974;48.670;8.994;2022-07-12T03:53:46;15.30;99.90
3919;DHT22;1974;48.670;8.994;2022-07-12T03:56:14;15.30;99.90
3919;DHT22;1974;48.670;8.994;2022-07-12T03:59:01;15.30;99.90
3919;DHT22;1974;48.670;8.994;2022-07-12T04:01:28;15.30;99.90
3919;DHT22;1974;48.670;8.994;2022-07-12T04:03:55;15.30;99.90
3919;DHT22;1974;48.670;8.994;2022-07-12T04:06:22;15.30;99.90
3919;DHT22;1974;48.670;8.994;2022-07-12T04:08:49;15.30;99.90
3919;DHT22;1974;48.670;8.994;2022-07-12T04:11:17;15.20;99.90
3919;DHT22;1974;48.670;8.994;2022-07-12T04:13:44;15.20;99.90
3919;DHT22;1974;48.670;8.994;2022-07-12T04:16:10;15.20;99.90
3919;DHT22;1974;48.670;8.994;2022-07-12T04:18:37;15.20;99.90
3919;DHT22;1974;48.670;8.994;2022-07-12T04:21:04;15.30;99.90
3919;DHT22;1974;48.670;8.994;2022-07-12T04:23:31;15.30;99.90
3919;DHT22;1974;48.670;8.994;2022-07-12T04:25:58;15.30;99.90
3919;DHT22;1974;48.670;8.994;2022-07-12T04:28:26;15.30;99.90
3919;DHT22;1974;48.670;8.994;2022-07-12T04:30:53;15.30;99.90
3919;DHT22;1974;48.670;8.994;2022-07-12T04:33:20;15.30;99.90
3919;DHT22;1974;48.670;8.994;2022-07-12T04:35:46;15.30;99.90
3919;DHT22;1974;48.670;8.994;2022-07-12T04:38:13;15.30;99.90
3919;DHT22;1974;48.670;8.994;2022-07-12T04:40:40;15.30;99.90
3919;DHT22;1974;48.670;8.994;2022-07-12T04:43:07;15.30;99.90
3919;DHT22;1974;48.670;8.994;2022-07-12T04:45:35;15.40;99.90
3919;DHT22;1974;48.670;8.994;2022-07-12T04:48:02;15.40;99.90
3919;DHT22;1974;48.670;8.994;2022-07-12T04:50:29;15.40;99.90
3919;DHT22;1974;48.670;8.994;2022-07-12T04:52:55;15.40;99.90
3919;DHT22;1974;48.670;8.994;2022-07-12T04:55:22;15.40;99.90
3919;DHT22;1974;48.670;8.994;2022-07-12T04:57:49;15.40;99.90
3919;DHT22;1974;48.670;8.994;2022-07-12T05:00:16;15.40;99.90
3919;DHT22;1974;48.670;8.994;2022-07-12T05:02:44;15.50;99.90
3919;DHT22;1974;48.670;8.994;2022-07-12T05:05:11;15.50;99.90
3919;DHT22;1974;48.670;8.994;2022-07-12T05:07:39;15.60;99.90
3919;DHT22;1974;48.670;8.994;2022-07-12T05:10:07;15.60;99.90
3919;DHT22;1974;48.670;8.994;2022-07-12T05:12:34;15.70;99.90
3919;DHT22;1974;48.670;8.994;2022-07-12T05:15:01;15.70;99.90
3919;DHT22;1974;48.670;8.994;2022-07-12T05:17:28;15.80;99.90
3919;DHT22;1974;48.670;8.994;2022-07-12T05:19:56;15.90;99.90
3919;DHT22;1974;48.670;8.994;2022-07-12T05:22:23;15.90;99.90
3919;DHT22;1974;48.670;8.994;2022-07-12T05:24:51;16.00;99.90
3919;DHT22;1974;48.670;8.994;2022-07-12T05:27:18;16.10;99.90
3919;DHT22;1974;48.670;8.994;2022-07-12T05:29:45;16.10;99.90
3919;DHT22;1974;48.670;8.994;2022-07-12T05:32:12;16.20;99.90
3919;DHT22;1974;48.670;8.994;2022-07-12T05:34:39;16.30;99.90
3919;DHT22;1974;48.670;8.994;2022-07-12T05:37:07;16.40;99.90
3919;DHT22;1974;48.670;8.994;2022-07-12T05:39:33;16.40;99.90
3919;DHT22;1974;48.670;8.994;2022-07-12T05:42:00;16.50;99.90
3919;DHT22;1974;48.670;8.994;2022-07-12T05:44:27;16.60;99.90
3919;DHT22;1974;48.670;8.994;2022-07-12T05:46:54;16.60;99.90
3919;DHT22;1974;48.670;8.994;2022-07-12T05:49:21;16.70;99.90
3919;DHT22;1974;48.670;8.994;2022-07-12T05:51:48;16.80;99.90
3919;DHT22;1974;48.670;8.994;2022-07-12T05:54:34;16.90;99.90
3919;DHT22;1974;48.670;8.994;2022-07-12T05:57:00;17.00;99.90
3919;DHT22;1974;48.670;8.994;2022-07-12T05:59:27;17.10;99.90
3919;DHT22;1974;48.670;8.994;2022-07-12T06:01:54;17.20;99.90
3919;DHT22;1974;48.670;8.994;2022-07-12T06:04:21;17.40;99.90
3919;DHT22;1974;48.670;8.994;2022-07-12T06:06:48;17.60;99.90
3919;DHT22;1974;48.670;8.994;2022-07-12T06:09:15;17.60;99.90
3919;DHT22;1974;48.670;8.994;2022-07-12T06:11:43;17.80;99.90
3919;DHT22;1974;48.670;8.994;2022-07-12T06:14:09;17.90;99.90
3919;DHT22;1974;48.670;8.994;2022-07-12T06:16:36;18.10;99.90
3919;DHT22;1974;48.670;8.994;2022-07-12T06:19:03;18.30;99.90
3919;DHT22;1974;48.670;8.994;2022-07-12T06:21:30;18.40;99.90
3919;DHT22;1974;48.670;8.994;2022-07-12T06:23:56;18.50;99.90
3919;DHT22;1974;48.670;8.994;2022-07-12T06:26:23;18.60;99.90
3919;DHT22;1974;48.670;8.994;2022-07-12T06:28:51;18.90;99.90
3919;DHT22;1974;48.670;8.994;2022-07-12T06:31:18;19.10;99.90
3919;DHT22;1974;48.670;8.994;2022-07-12T06:33:45;19.30;99.90
3919;DHT22;1974;48.670;8.994;2022-07-12T06:36:11;19.60;99.90
3919;DHT22;1974;48.670;8.994;2022-07-12T06:38:38;19.90;99.90
3919;DHT22;1974;48.670;8.994;2022-07-12T06:41:05;20.00;99.90
3919;DHT22;1974;48.670;8.994;2022-07-12T06:43:32;20.20;99.90
3919;DHT22;1974;48.670;8.994;2022-07-12T06:46:00;20.50;99.90
3919;DHT22;1974;48.670;8.994;2022-07-12T06:48:26;21.00;99.90
3919;DHT22;1974;48.670;8.994;2022-07-12T06:50:53;21.10;99.90
3919;DHT22;1974;48.670;8.994;2022-07-12T06:53:20;21.30;99.90
3919;DHT22;1974;48.670;8.994;2022-07-12T06:55:47;21.40;99.90
3919;DHT22;1974;48.670;8.994;2022-07-12T06:58:14;21.40;99.90
3919;DHT22;1974;48.670;8.994;2022-07-12T07:00:41;21.40;99.90
3919;DHT22;1974;48.670;8.994;2022-07-12T07:03:09;21.40;99.90
3919;DHT22;1974;48.670;8.994;2022-07-12T07:05:36;21.60;99.90
3919;DHT22;1974;48.670;8.994;2022-07-12T07:08:03;21.70;99.90
3919;DHT22;1974;48.670;8.994;2022-07-12T07:10:30;21.80;99.90
3919;DHT22;1974;48.670;8.994;2022-07-12T07:12:57;21.90;99.90
3919;DHT22;1974;48.670;8.994;2022-07-12T07:15:24;21.90;99.90
3919;DHT22;1974;48.670;8.994;2022-07-12T07:17:51;22.00;99.90
3919;DHT22;1974;48.670;8.994;2022-07-12T07:20:19;22.00;99.90
3919;DHT22;1974;48.670;8.994;2022-07-12T07:22:46;22.10;99.90
3919;DHT22;1974;48.670;8.994;2022-07-12T07:25:13;22.00;99.90
3919;DHT22;1974;48.670;8.994;2022-07-12T07:27:40;22.00;99.90
3919;DHT22;1974;48.670;8.994;2022-07-12T07:30:07;22.10;99.90
3919;DHT22;1974;48.670;8.994;2022-07-12T07:32:52;22.30;99.90
3919;DHT22;1974;48.670;8.994;2022-07-12T07:35:20;22.30;99.90
3919;DHT22;1974;48.670;8.994;2022-07-12T07:37:47;22.40;99.90
3919;DHT22;1974;48.670;8.994;2022-07-12T07:40:13;22.40;99.90
3919;DHT22;1974;48.670;8.994;2022-07-12T07:42:40;22.60;99.90
3919;DHT22;1974;48.670;8.994;2022-07-12T07:45:08;22.80;99.90
3919;DHT22;1974;48.670;8.994;2022-07-12T07:47:43;22.90;99.90
3919;DHT22;1974;48.670;8.994;2022-07-12T07:50:10;23.00;99.90
3919;DHT22;1974;48.670;8.994;2022-07-12T07:52:38;23.20;99.90
3919;DHT22;1974;48.670;8.994;2022-07-12T07:55:05;23.50;99.90
3919;DHT22;1974;48.670;8.994;2022-07-12T07:57:32;24.10;99.90
3919;DHT22;1974;48.670;8.994;2022-07-12T07:59:59;24.20;99.90
3919;DHT22;1974;48.670;8.994;2022-07-12T08:02:26;24.40;99.90
3919;DHT22;1974;48.670;8.994;2022-07-12T08:04:52;24.50;99.90
3919;DHT22;1974;48.670;8.994;2022-07-12T08:07:19;24.40;99.90
3919;DHT22;1974;48.670;8.994;2022-07-12T08:09:47;24.20;99.90
3919;DHT22;1974;48.670;8.994;2022-07-12T08:12:14;24.40;99.90
3919;DHT22;1974;48.670;8.994;2022-07-12T08:14:41;24.40;99.90
3919;DHT22;1974;48.670;8.994;2022-07-12T08:17:08;24.40;99.90
3919;DHT22;1974;48.670;8.994;2022-07-12T08:19:34;24.50;99.90
3919;DHT22;1974;48.670;8.994;2022-07-12T08:22:01;24.50;99.90
3919;DHT22;1974;48.670;8.994;2022-07-12T08:24:29;24.30;99.90
3919;DHT22;1974;48.670;8.994;2022-07-12T08:26:57;24.00;99.90
3919;DHT22;1974;48.670;8.994;2022-07-12T08:29:24;23.80;99.90
3919;DHT22;1974;48.670;8.994;2022-07-12T08:31:50;23.90;99.90
3919;DHT22;1974;48.670;8.994;2022-07-12T08:34:17;24.30;99.90
3919;DHT22;1974;48.670;8.994;2022-07-12T08:36:44;24.50;99.90
3919;DHT22;1974;48.670;8.994;2022-07-12T08:39:11;24.70;99.90
3919;DHT22;1974;48.670;8.994;2022-07-12T08:41:37;24.80;99.90
3919;DHT22;1974;48.670;8.994;2022-07-12T08:44:05;25.00;99.50
3919;DHT22;1974;48.670;8.994;2022-07-12T08:46:32;25.10;99.80
3919;DHT22;1974;48.670;8.994;2022-07-12T08:49:04;25.10;99.90
3919;DHT22;1974;48.670;8.994;2022-07-12T08:51:31;25.60;98.70
3919;DHT22;1974;48.670;8.994;2022-07-12T08:54:08;25.50;98.10
3919;DHT22;1974;48.670;8.994;2022-07-12T08:56:36;25.20;97.20
3919;DHT22;1974;48.670;8.994;2022-07-12T08:59:17;25.10;98.70
3919;DHT22;1974;48.670;8.994;2022-07-12T09:01:46;25.30;98.60
3919;DHT22;1974;48.670;8.994;2022-07-12T09:04:16;25.60;97.50
3919;DHT22;1974;48.670;8.994;2022-07-12T09:06:44;26.00;97.30
3919;DHT22;1974;48.670;8.994;2022-07-12T09:09:11;26.40;96.90
3919;DHT22;1974;48.670;8.994;2022-07-12T09:11:38;26.30;95.60
3919;DHT22;1974;48.670;8.994;2022-07-12T09:14:05;26.00;95.70
3919;DHT22;1974;48.670;8.994;2022-07-12T09:16:34;25.70;95.30
3919;DHT22;1974;48.670;8.994;2022-07-12T09:19:12;25.30;96.80
3919;DHT22;1974;48.670;8.994;2022-07-12T09:21:47;25.20;97.40
3919;DHT22;1974;48.670;8.994;2022-07-12T09:24:15;25.40;96.40
3919;DHT22;1974;48.670;8.994;2022-07-12T09:26:42;25.50;95.30
3919;DHT22;1974;48.670;8.994;2022-07-12T09:29:11;25.50;95.50
3919;DHT22;1974;48.670;8.994;2022-07-12T09:31:41;25.50;95.50
3919;DHT22;1974;48.670;8.994;2022-07-12T09:34:28;25.40;94.60
3919;DHT22;1974;48.670;8.994;2022-07-12T09:37:12;25.50;94.30
3919;DHT22;1974;48.670;8.994;2022-07-12T09:39:39;25.50;94.90
3919;DHT22;1974;48.670;8.994;2022-07-12T09:42:08;25.60;95.40
3919;DHT22;1974;48.670;8.994;2022-07-12T09:44:37;25.60;94.40
3919;DHT22;1974;48.670;8.994;2022-07-12T09:47:08;25.50;94.10
3919;DHT22;1974;48.670;8.994;2022-07-12T09:49:38;25.60;94.40
3919;DHT22;1974;48.670;8.994;2022-07-12T09:52:06;25.70;94.00
3919;DHT22;1974;48.670;8.994;2022-07-12T09:54:40;25.80;93.50
3919;DHT22;1974;48.670;8.994;2022-07-12T09:57:20;25.70;93.90
3919;DHT22;1974;48.670;8.994;2022-07-12T09:59:47;25.70;93.90
3919;DHT22;1974;48.670;8.994;2022-07-12T10:02:16;25.70;93.40
3919;DHT22;1974;48.670;8.994;2022-07-12T10:04:46;25.60;93.90
3919;DHT22;1974;48.670;8.994;2022-07-12T10:07:12;25.70;93.30
3919;DHT22;1974;48.670;8.994;2022-07-12T10:09:41;25.80;93.10
3919;DHT22;1974;48.670;8.994;2022-07-12T10:12:10;25.80;93.10
3919;DHT22;1974;48.670;8.994;2022-07-12T10:14:37;25.80;93.70
3919;DHT22;1974;48.670;8.994;2022-07-12T10:17:05;25.90;93.10
3919;DHT22;1974;48.670;8.994;2022-07-12T10:19:36;25.90;92.40
3919;DHT22;1974;48.670;8.994;2022-07-12T10:22:04;25.50;92.60
3919;DHT22;1974;48.670;8.994;2022-07-12T10:24:51;25.30;93.50
3919;DHT22;1974;48.670;8.994;2022-07-12T10:27:30;25.20;93.50
3919;DHT22;1974;48.670;8.994;2022-07-12T10:30:16;25.10;94.30
3919;DHT22;1974;48.670;8.994;2022-07-12T10:32:45;25.20;93.00
3919;DHT22;1974;48.670;8.994;2022-07-12T10:35:17;25.30;93.00
3919;DHT22;1974;48.670;8.994;2022-07-12T10:40:45;25.40;92.60
3919;DHT22;1974;48.670;8.994;2022-07-12T10:43:17;25.40;92.70
3919;DHT22;1974;48.670;8.994;2022-07-12T10:45:46;25.50;92.10
3919;DHT22;1974;48.670;8.994;2022-07-12T10:48:22;25.40;92.00
3919;DHT22;1974;48.670;8.994;2022-07-12T10:50:52;25.50;92.20
3919;DHT22;1974;48.670;8.994;2022-07-12T10:53:32;25.60;91.30
3919;DHT22;1974;48.670;8.994;2022-07-12T10:56:14;25.90;91.00
3919;DHT22;1974;48.670;8.994;2022-07-12T10:58:43;25.90;91.00
3919;DHT22;1974;48.670;8.994;2022-07-12T11:01:12;26.00;90.60
3919;DHT22;1974;48.670;8.994;2022-07-12T11:03:40;26.10;90.30
3919;DHT22;1974;48.670;8.994;2022-07-12T11:06:10;26.30;90.60
3919;DHT22;1974;48.670;8.994;2022-07-12T11:08:52;26.60;90.30
3919;DHT22;1974;48.670;8.994;2022-07-12T11:11:20;27.10;89.30
3919;DHT22;1974;48.670;8.994;2022-07-12T11:13:47;27.60;87.20
3919;DHT22;1974;48.670;8.994;2022-07-12T11:16:14;27.70;84.50
3919;DHT22;1974;48.670;8.994;2022-07-12T11:18:42;27.50;85.80
3919;DHT22;1974;48.670;8.994;2022-07-12T11:21:10;27.00;85.80
3919;DHT22;1974;48.670;8.994;2022-07-12T11:23:38;26.70;86.30
3919;DHT22;1974;48.670;8.994;2022-07-12T11:26:08;26.50;88.20
3919;DHT22;1974;48.670;8.994;2022-07-12T11:28:34;26.50;88.70
3919;DHT22;1974;48.670;8.994;2022-07-12T11:31:03;26.40;87.50
3919;DHT22;1974;48.670;8.994;2022-07-12T11:33:31;26.40;85.00
3919;DHT22;1974;48.670;8.994;2022-07-12T11:36:00;26.40;85.70
3919;DHT22;1974;48.670;8.994;2022-07-12T11:38:29;26.10;86.00
3919;DHT22;1974;48.670;8.994;2022-07-12T11:40:56;26.10;85.70
3919;DHT22;1974;48.670;8.994;2022-07-12T11:43:24;25.90;86.00
3919;DHT22;1974;48.670;8.994;2022-07-12T11:45:51;25.80;87.00
3919;DHT22;1974;48.670;8.994;2022-07-12T11:48:18;25.70;86.00
3919;DHT22;1974;48.670;8.994;2022-07-12T11:50:45;25.70;87.80
3919;DHT22;1974;48.670;8.994;2022-07-12T11:53:16;25.70;86.50
3919;DHT22;1974;48.670;8.994;2022-07-12T11:55:47;25.70;86.80
3919;DHT22;1974;48.670;8.994;2022-07-12T11:58:16;25.70;86.10
3919;DHT22;1974;48.670;8.994;2022-07-12T12:00:43;25.80;87.10
3919;DHT22;1974;48.670;8.994;2022-07-12T12:03:11;25.70;87.00
3919;DHT22;1974;48.670;8.994;2022-07-12T12:05:38;25.80;87.60
3919;DHT22;1974;48.670;8.994;2022-07-12T12:08:05;25.80;87.70
3919;DHT22;1974;48.670;8.994;2022-07-12T12:10:32;26.00;85.90
3919;DHT22;1974;48.670;8.994;2022-07-12T12:13:01;25.90;86.60
3919;DHT22;1974;48.670;8.994;2022-07-12T12:15:29;25.80;84.60
3919;DHT22;1974;48.670;8.994;2022-07-12T12:17:58;25.70;86.10
3919;DHT22;1974;48.670;8.994;2022-07-12T12:20:27;25.70;86.00
3919;DHT22;1974;48.670;8.994;2022-07-12T12:22:55;25.60;86.70
3919;DHT22;1974;48.670;8.994;2022-07-12T12:25:22;25.70;85.40
3919;DHT22;1974;48.670;8.994;2022-07-12T12:27:53;25.70;86.60
3919;DHT22;1974;48.670;8.994;2022-07-12T12:30:22;25.70;86.00
3919;DHT22;1974;48.670;8.994;2022-07-12T12:32:51;25.60;86.10
3919;DHT22;1974;48.670;8.994;2022-07-12T12:35:19;25.60;85.60
3919;DHT22;1974;48.670;8.994;2022-07-12T12:37:51;25.40;84.50
3919;DHT22;1974;48.670;8.994;2022-07-12T12:40:19;25.10;86.80
3919;DHT22;1974;48.670;8.994;2022-07-12T12:42:46;25.10;88.10
3919;DHT22;1974;48.670;8.994;2022-07-12T12:45:22;25.00;86.50
3919;DHT22;1974;48.670;8.994;2022-07-12T12:47:57;25.00;88.50
3919;DHT22;1974;48.670;8.994;2022-07-12T12:50:41;25.10;88.50
3919;DHT22;1974;48.670;8.994;2022-07-12T12:53:10;25.10;86.80
3919;DHT22;1974;48.670;8.994;2022-07-12T12:55:37;25.10;87.60
3919;DHT22;1974;48.670;8.994;2022-07-12T12:58:04;25.20;85.90
3919;DHT22;1974;48.670;8.994;2022-07-12T13:00:35;25.20;86.00
3919;DHT22;1974;48.670;8.994;2022-07-12T13:03:03;25.20;86.50
3919;DHT22;1974;48.670;8.994;2022-07-12T13:05:30;25.10;86.60
3919;DHT22;1974;48.670;8.994;2022-07-12T13:07:57;25.00;87.10
3919;DHT22;1974;48.670;8.994;2022-07-12T13:10:24;24.90;87.60
3919;DHT22;1974;48.670;8.994;2022-07-12T13:12:51;24.90;87.50
3919;DHT22;1974;48.670;8.994;2022-07-12T13:15:18;24.90;86.60
3919;DHT22;1974;48.670;8.994;2022-07-12T13:17:46;24.90;86.70
3919;DHT22;1974;48.670;8.994;2022-07-12T13:20:13;24.90;85.70
3919;DHT22;1974;48.670;8.994;2022-07-12T13:22:40;25.00;85.40
3919;DHT22;1974;48.670;8.994;2022-07-12T13:25:08;25.00;86.30
3919;DHT22;1974;48.670;8.994;2022-07-12T13:27:36;24.90;86.10
3919;DHT22;1974;48.670;8.994;2022-07-12T13:30:04;24.90;84.90
3919;DHT22;1974;48.670;8.994;2022-07-12T13:32:32;25.00;82.60
3919;DHT22;1974;48.670;8.994;2022-07-12T13:35:00;25.10;83.60
3919;DHT22;1974;48.670;8.994;2022-07-12T13:37:27;25.10;82.50
3919;DHT22;1974;48.670;8.994;2022-07-12T13:39:54;25.10;83.60
3919;DHT22;1974;48.670;8.994;2022-07-12T13:42:41;25.10;84.40
3919;DHT22;1974;48.670;8.994;2022-07-12T13:45:09;25.00;85.10
3919;DHT22;1974;48.670;8.994;2022-07-12T13:47:37;24.80;85.50
3919;DHT22;1974;48.670;8.994;2022-07-12T13:50:06;24.70;86.90
3919;DHT22;1974;48.670;8.994;2022-07-12T13:52:34;24.70;85.10
3919;DHT22;1974;48.670;8.994;2022-07-12T13:55:02;24.70;85.80
3919;DHT22;1974;48.670;8.994;2022-07-12T13:57:29;24.60;86.00
3919;DHT22;1974;48.670;8.994;2022-07-12T13:59:57;24.70;86.10
3919;DHT22;1974;48.670;8.994;2022-07-12T14:02:24;24.70;86.60
3919;DHT22;1974;48.670;8.994;2022-07-12T14:04:51;24.70;85.10
3919;DHT22;1974;48.670;8.994;2022-07-12T14:07:20;24.70;86.10
3919;DHT22;1974;48.670;8.994;2022-07-12T14:09:47;24.50;86.30
3919;DHT22;1974;48.670;8.994;2022-07-12T14:12:13;24.40;86.00
3919;DHT22;1974;48.670;8.994;2022-07-12T14:14:40;24.30;86.70
3919;DHT22;1974;48.670;8.994;2022-07-12T14:17:24;24.30;87.70
3919;DHT22;1974;48.670;8.994;2022-07-12T14:19:51;24.30;86.80
3919;DHT22;1974;48.670;8.994;2022-07-12T14:22:19;24.40;86.00
3919;DHT22;1974;48.670;8.994;2022-07-12T14:24:46;24.60;85.70
3919;DHT22;1974;48.670;8.994;2022-07-12T14:27:13;24.60;86.30
3919;DHT22;1974;48.670;8.994;2022-07-12T14:29:39;24.80;85.00
3919;DHT22;1974;48.670;8.994;2022-07-12T14:32:06;24.70;84.60
3919;DHT22;1974;48.670;8.994;2022-07-12T14:34:33;24.60;84.80
3919;DHT22;1974;48.670;8.994;2022-07-12T14:37:00;24.50;85.30
3919;DHT22;1974;48.670;8.994;2022-07-12T14:39:28;24.70;84.50
3919;DHT22;1974;48.670;8.994;2022-07-12T14:41:55;24.80;84.30
3919;DHT22;1974;48.670;8.994;2022-07-12T14:44:22;24.80;84.00
3919;DHT22;1974;48.670;8.994;2022-07-12T14:46:49;24.70;84.60
3919;DHT22;1974;48.670;8.994;2022-07-12T14:49:18;24.70;84.60
3919;DHT22;1974;48.670;8.994;2022-07-12T14:51:45;24.70;83.90
3919;DHT22;1974;48.670;8.994;2022-07-12T14:54:12;24.80;84.20
3919;DHT22;1974;48.670;8.994;2022-07-12T14:56:40;24.60;84.00
3919;DHT22;1974;48.670;8.994;2022-07-12T14:59:06;24.50;85.50
3919;DHT22;1974;48.670;8.994;2022-07-12T15:01:33;24.40;86.60
3919;DHT22;1974;48.670;8.994;2022-07-12T15:04:00;24.40;84.50
3919;DHT22;1974;48.670;8.994;2022-07-12T15:06:27;24.40;85.40
3919;DHT22;1974;48.670;8.994;2022-07-12T15:08:53;24.50;85.20
3919;DHT22;1974;48.670;8.994;2022-07-12T15:11:20;24.50;84.00
3919;DHT22;1974;48.670;8.994;2022-07-12T15:13:48;24.60;82.20
3919;DHT22;1974;48.670;8.994;2022-07-12T15:16:15;24.70;82.40
3919;DHT22;1974;48.670;8.994;2022-07-12T15:18:42;24.80;82.70
3919;DHT22;1974;48.670;8.994;2022-07-12T15:21:09;24.70;82.90
3919;DHT22;1974;48.670;8.994;2022-07-12T15:23:35;24.60;83.70
3919;DHT22;1974;48.670;8.994;2022-07-12T15:26:02;24.60;84.00
3919;DHT22;1974;48.670;8.994;2022-07-12T15:28:29;24.70;82.30
3919;DHT22;1974;48.670;8.994;2022-07-12T15:30:57;24.70;82.00
3919;DHT22;1974;48.670;8.994;2022-07-12T15:33:24;24.70;82.50
3919;DHT22;1974;48.670;8.994;2022-07-12T15:35:51;24.80;81.80
3919;DHT22;1974;48.670;8.994;2022-07-12T15:38:18;24.90;81.40
3919;DHT22;1974;48.670;8.994;2022-07-12T15:40:45;25.00;80.30
3919;DHT22;1974;48.670;8.994;2022-07-12T15:43:11;25.00;79.50
3919;DHT22;1974;48.670;8.994;2022-07-12T15:45:39;25.00;80.80
3919;DHT22;1974;48.670;8.994;2022-07-12T15:48:07;24.90;81.00
3919;DHT22;1974;48.670;8.994;2022-07-12T15:50:34;24.80;82.50
3919;DHT22;1974;48.670;8.994;2022-07-12T15:53:00;24.70;81.90
3919;DHT22;1974;48.670;8.994;2022-07-12T15:55:44;24.70;82.00
3919;DHT22;1974;48.670;8.994;2022-07-12T15:58:11;24.70;82.00
3919;DHT22;1974;48.670;8.994;2022-07-12T16:00:38;24.60;82.40
3919;DHT22;1974;48.670;8.994;2022-07-12T16:03:06;24.60;82.20
3919;DHT22;1974;48.670;8.994;2022-07-12T16:05:35;24.50;83.60
3919;DHT22;1974;48.670;8.994;2022-07-12T16:08:02;24.30;84.00
3919;DHT22;1974;48.670;8.994;2022-07-12T16:10:29;24.30;84.60